sensor_id;sensor_type;location;lat;lon;timestamp;pressure;altitude;pressure_sealevel;temperature;humidity
48041;BME280;33815;48.386;11.738;2022-10-22T00:01:35;96231.50;;;10.85;100.00
48041;BME280;33815;48.386;11.738;2022-10-22T00:04:01;96232.16;;;10.95;100.00
48041;BME280;33815;48.386;11.738;2022-10-22T00:06:26;96208.03;;;10.85;100.00
48041;BME280;33815;48.386;11.738;2022-10-22T00:08:51;96225.81;;;11.06;100.00
48041;BME280;33815;48.386;11.738;2022-10-22T00:11:18;96240.03;;;11.20;100.00
48041;BME280;33815;48.386;11.738;2022-10-22T00:13:44;96245.88;;;11.30;100.00
48041;BME280;33815;48.386;11.738;2022-10-22T00:16:10;96240.03;;;11.28;100.00
48041;BME280;33815;48.386;11.738;2022-10-22T00:18:36;96251.28;;;11.37;100.00
48041;BME280;33815;48.386;11.738;2022-10-22T00:21:02;96249.28;;;11.30;100.00
48041;BME280;33815;48.386;11.738;2022-10-22T00:23:27;96240.84;;;11.28;100.00
48041;BME280;33815;48.386;11.738;2022-10-22T00:25:52;96251.78;;;11.32;100.00
48041;BME280;33815;48.386;11.738;2022-10-22T00:28:18;96227.31;;;11.17;100.00
48041;BME280;33815;48.386;11.738;2022-10-22T00:30:43;96227.16;;;11.18;100.00
48041;BME280;33815;48.386;11.738;2022-10-22T00:33:09;96245.09;;;11.29;100.00
48041;BME280;33815;48.386;11.738;2022-10-22T00:35:34;96238.88;;;11.22;100.00
48041;BME280;33815;48.386;11.738;2022-10-22T00:38:00;96241.63;;;11.29;100.00
48041;BME280;33815;48.386;11.738;2022-10-22T00:40:26;96221.75;;;11.20;100.00
48041;BME280;33815;48.386;11.738;2022-10-22T00:42:52;96249.63;;;11.27;100.00
48041;BME280;33815;48.386;11.738;2022-10-22T00:45:23;96264.94;;;11.30;100.00
48041;BME280;33815;48.386;11.738;2022-10-22T00:47:54;96263.66;;;11.35;100.00
48041;BME280;33815;48.386;11.738;2022-10-22T00:50:33;96263.50;;;11.36;100.00
48041;BME280;33815;48.386;11.738;2022-10-22T00:53:01;96266.94;;;11.45;100.00
48041;BME280;33815;48.386;11.738;2022-10-22T00:55:28;96279.16;;;11.53;100.00
48041;BME280;33815;48.386;11.738;2022-10-22T00:57:56;96288.13;;;11.58;100.00
48041;BME280;33815;48.386;11.738;2022-10-22T01:00:22;96294.81;;;11.61;100.00
48041;BME280;33815;48.386;11.738;2022-10-22T01:02:48;96306.72;;;11.63;100.00
48041;BME280;33815;48.386;11.738;2022-10-22T01:05:15;96318.47;;;11.68;100.00
48041;BME280;33815;48.386;11.738;2022-10-22T01:07:44;96308.69;;;11.61;100.00
48041;BME280;33815;48.386;11.738;2022-10-22T01:10:28;96296.13;;;11.57;100.00
48041;BME280;33815;48.386;11.738;2022-10-22T01:13:08;96296.13;;;11.73;100.00
48041;BME280;33815;48.386;11.738;2022-10-22T01:15:47;96308.19;;;11.99;100.00
48041;BME280;33815;48.386;11.738;2022-10-22T01:18:31;96280.28;;;11.66;100.00
48041;BME280;33815;48.386;11.738;2022-10-22T01:21:19;96308.50;;;11.88;100.00
48041;BME280;33815;48.386;11.738;2022-10-22T01:31:55;96268.22;;;11.74;100.00
48041;BME280;33815;48.386;11.738;2022-10-22T01:34:23;96254.34;;;11.73;100.00
48041;BME280;33815;48.386;11.738;2022-10-22T01:36:50;96252.88;;;11.71;100.00
48041;BME280;33815;48.386;11.738;2022-10-22T01:39:17;96237.72;;;11.66;100.00
48041;BME280;33815;48.386;11.738;2022-10-22T01:41:43;96264.13;;;11.79;100.00
48041;BME280;33815;48.386;11.738;2022-10-22T01:44:29;96267.91;;;11.77;100.00
48041;BME280;33815;48.386;11.738;2022-10-22T01:50:01;96285.34;;;11.76;100.00
48041;BME280;33815;48.386;11.738;2022-10-22T01:52:36;96283.69;;;11.75;100.00
48041;BME280;33815;48.386;11.738;2022-10-22T01:55:18;96261.72;;;11.53;100.00
48041;BME280;33815;48.386;11.738;2022-10-22T01:58:07;96300.38;;;11.74;100.00
48041;BME280;33815;48.386;11.738;2022-10-22T02:00:45;96293.69;;;11.72;100.00
48041;BME280;33815;48.386;11.738;2022-10-22T02:03:25;96282.59;;;11.61;100.00
48041;BME280;33815;48.386;11.738;2022-10-22T02:05:56;96289.94;;;11.66;100.00
48041;BME280;33815;48.386;11.738;2022-10-22T02:08:27;96292.53;;;11.74;100.00
48041;BME280;33815;48.386;11.738;2022-10-22T02:10:54;96291.53;;;11.75;100.00
48041;BME280;33815;48.386;11.738;2022-10-22T02:13:24;96278.50;;;11.67;100.00
48041;BME280;33815;48.386;11.738;2022-10-22T02:15:51;96261.06;;;11.59;100.00
48041;BME280;33815;48.386;11.738;2022-10-22T02:18:18;96293.00;;;11.70;100.00
48041;BME280;33815;48.386;11.738;2022-10-22T02:20:46;96301.84;;;11.69;100.00
48041;BME280;33815;48.386;11.738;2022-10-22T02:23:12;96287.31;;;11.58;100.00
48041;BME280;33815;48.386;11.738;2022-10-22T02:25:41;96317.50;;;11.69;100.00
48041;BME280;33815;48.386;11.738;2022-10-22T02:28:22;96317.34;;;11.70;100.00
48041;BME280;33815;48.386;11.738;2022-10-22T02:30:53;96318.97;;;11.63;100.00
48041;BME280;33815;48.386;11.738;2022-10-22T02:33:31;96330.88;;;11.82;100.00
48041;BME280;33815;48.386;11.738;2022-10-22T02:35:59;96337.22;;;11.79;100.00
48041;BME280;33815;48.386;11.738;2022-10-22T02:38:27;96334.47;;;11.73;100.00
48041;BME280;33815;48.386;11.738;2022-10-22T02:40:53;96333.63;;;11.72;100.00
48041;BME280;33815;48.386;11.738;2022-10-22T02:43:18;96327.78;;;11.62;100.00
48041;BME280;33815;48.386;11.738;2022-10-22T02:45:45;96324.38;;;11.61;100.00
48041;BME280;33815;48.386;11.738;2022-10-22T02:48:10;96333.47;;;11.65;100.00
48041;BME280;33815;48.386;11.738;2022-10-22T02:50:35;96324.50;;;11.60;100.00
48041;BME280;33815;48.386;11.738;2022-10-22T02:53:01;96336.41;;;11.62;100.00
48041;BME280;33815;48.386;11.738;2022-10-22T02:55:26;96340.34;;;11.66;100.00
48041;BME280;33815;48.386;11.738;2022-10-22T02:57:51;96348.84;;;11.69;100.00
48041;BME280;33815;48.386;11.738;2022-10-22T03:00:17;96338.22;;;11.62;100.00
48041;BME280;33815;48.386;11.738;2022-10-22T03:02:42;96344.06;;;11.64;100.00
48041;BME280;33815;48.386;11.738;2022-10-22T03:05:08;96328.28;;;11.57;100.00
48041;BME280;33815;48.386;11.738;2022-10-22T03:07:33;96357.47;;;11.77;100.00
48041;BME280;33815;48.386;11.738;2022-10-22T03:09:59;96332.50;;;11.58;100.00
48041;BME280;33815;48.386;11.738;2022-10-22T03:12:24;96351.28;;;11.78;100.00
48041;BME280;33815;48.386;11.738;2022-10-22T03:14:50;96334.94;;;11.68;100.00
48041;BME280;33815;48.386;11.738;2022-10-22T03:17:15;96348.16;;;11.75;100.00
48041;BME280;33815;48.386;11.738;2022-10-22T03:19:40;96349.81;;;11.76;100.00
48041;BME280;33815;48.386;11.738;2022-10-22T03:22:14;96329.56;;;11.78;100.00
48041;BME280;33815;48.386;11.738;2022-10-22T03:24:43;96325.34;;;11.69;100.00
48041;BME280;33815;48.386;11.738;2022-10-22T03:27:11;96325.50;;;11.67;100.00
48041;BME280;33815;48.386;11.738;2022-10-22T03:29:39;96324.34;;;11.78;100.00
48041;BME280;33815;48.386;11.738;2022-10-22T03:32:05;96322.56;;;11.70;100.00
48041;BME280;33815;48.386;11.738;2022-10-22T03:34:31;96319.63;;;11.65;100.00
48041;BME280;33815;48.386;11.738;2022-10-22T03:36:58;96314.72;;;11.62;100.00
48041;BME280;33815;48.386;11.738;2022-10-22T03:39:24;96310.81;;;11.66;100.00
48041;BME280;33815;48.386;11.738;2022-10-22T03:41:51;96331.69;;;11.74;100.00
48041;BME280;33815;48.386;11.738;2022-10-22T03:44:16;96340.16;;;11.76;100.00
48041;BME280;33815;48.386;11.738;2022-10-22T03:46:42;96324.16;;;11.71;100.00
48041;BME280;33815;48.386;11.738;2022-10-22T03:49:08;96342.78;;;11.68;100.00
48041;BME280;33815;48.386;11.738;2022-10-22T03:51:33;96323.53;;;11.61;100.00
48041;BME280;33815;48.386;11.738;2022-10-22T03:54:00;96350.28;;;11.88;100.00
48041;BME280;33815;48.386;11.738;2022-10-22T03:56:25;96351.13;;;11.72;100.00
48041;BME280;33815;48.386;11.738;2022-10-22T03:58:50;96354.69;;;11.71;100.00
48041;BME280;33815;48.386;11.738;2022-10-22T04:01:16;96368.88;;;11.76;100.00
48041;BME280;33815;48.386;11.738;2022-10-22T04:03:41;96364.34;;;11.70;100.00
48041;BME280;33815;48.386;11.738;2022-10-22T04:06:11;96386.19;;;11.77;100.00
48041;BME280;33815;48.386;11.738;2022-10-22T04:08:42;96387.34;;;11.91;100.00
48041;BME280;33815;48.386;11.738;2022-10-22T04:11:08;96366.44;;;11.83;100.00
48041;BME280;33815;48.386;11.738;2022-10-22T04:13:34;96369.84;;;11.75;100.00
48041;BME280;33815;48.386;11.738;2022-10-22T04:16:17;96381.31;;;11.74;100.00
48041;BME280;33815;48.386;11.738;2022-10-22T04:18:45;96388.13;;;11.75;100.00
48041;BME280;33815;48.386;11.738;2022-10-22T04:21:13;96392.88;;;11.72;100.00
48041;BME280;33815;48.386;11.738;2022-10-22T04:23:43;96380.28;;;11.51;100.00
48041;BME280;33815;48.386;11.738;2022-10-22T04:26:09;96382.06;;;11.50;100.00
48041;BME280;33815;48.386;11.738;2022-10-22T04:28:34;96389.28;;;11.56;100.00
48041;BME280;33815;48.386;11.738;2022-10-22T04:30:59;96386.66;;;11.48;100.00
48041;BME280;33815;48.386;11.738;2022-10-22T04:33:25;96376.34;;;11.38;100.00
48041;BME280;33815;48.386;11.738;2022-10-22T04:35:51;96387.28;;;11.50;100.00
48041;BME280;33815;48.386;11.738;2022-10-22T04:38:16;96380.59;;;11.39;100.00
48041;BME280;33815;48.386;11.738;2022-10-22T04:40:41;96391.50;;;11.35;100.00
48041;BME280;33815;48.386;11.738;2022-10-22T04:43:07;96393.94;;;11.28;100.00
48041;BME280;33815;48.386;11.738;2022-10-22T04:45:34;96377.94;;;11.14;100.00
48041;BME280;33815;48.386;11.738;2022-10-22T04:47:59;96391.63;;;11.25;100.00
48041;BME280;33815;48.386;11.738;2022-10-22T04:50:25;96392.28;;;11.19;100.00
48041;BME280;33815;48.386;11.738;2022-10-22T04:52:50;96377.88;;;10.98;100.00
48041;BME280;33815;48.386;11.738;2022-10-22T04:55:15;96377.03;;;10.89;100.00
48041;BME280;33815;48.386;11.738;2022-10-22T04:57:41;96387.28;;;10.91;100.00
48041;BME280;33815;48.386;11.738;2022-10-22T05:00:06;96414.56;;;11.05;100.00
48041;BME280;33815;48.386;11.738;2022-10-22T05:02:32;96398.88;;;10.96;100.00
48041;BME280;33815;48.386;11.738;2022-10-22T05:04:57;96406.53;;;10.98;100.00
48041;BME280;33815;48.386;11.738;2022-10-22T05:07:23;96414.03;;;10.93;100.00
48041;BME280;33815;48.386;11.738;2022-10-22T05:09:48;96418.75;;;10.89;100.00
48041;BME280;33815;48.386;11.738;2022-10-22T05:12:14;96406.28;;;10.75;100.00
48041;BME280;33815;48.386;11.738;2022-10-22T05:14:39;96423.59;;;10.84;100.00
48041;BME280;33815;48.386;11.738;2022-10-22T05:17:04;96421.63;;;10.78;100.00
48041;BME280;33815;48.386;11.738;2022-10-22T05:19:30;96421.78;;;10.76;100.00
48041;BME280;33815;48.386;11.738;2022-10-22T05:22:00;96419.03;;;10.78;100.00
48041;BME280;33815;48.386;11.738;2022-10-22T05:24:27;96424.03;;;10.71;100.00
48041;BME280;33815;48.386;11.738;2022-10-22T05:26:55;96418.97;;;10.70;100.00
48041;BME280;33815;48.386;11.738;2022-10-22T05:29:21;96411.25;;;10.60;100.00
48041;BME280;33815;48.386;11.738;2022-10-22T05:31:46;96404.88;;;10.54;100.00
48041;BME280;33815;48.386;11.738;2022-10-22T05:34:12;96417.16;;;10.62;100.00
48041;BME280;33815;48.386;11.738;2022-10-22T05:36:37;96414.69;;;10.60;100.00
48041;BME280;33815;48.386;11.738;2022-10-22T05:39:03;96404.88;;;10.54;100.00
48041;BME280;33815;48.386;11.738;2022-10-22T05:41:28;96428.38;;;10.62;100.00
48041;BME280;33815;48.386;11.738;2022-10-22T05:43:56;96429.00;;;10.56;100.00
48041;BME280;33815;48.386;11.738;2022-10-22T05:46:23;96427.38;;;10.55;100.00
48041;BME280;33815;48.386;11.738;2022-10-22T05:48:53;96422.84;;;10.39;100.00
48041;BME280;33815;48.386;11.738;2022-10-22T05:51:20;96440.66;;;10.44;100.00
48041;BME280;33815;48.386;11.738;2022-10-22T05:53:51;96451.78;;;10.54;100.00
48041;BME280;33815;48.386;11.738;2022-10-22T05:56:16;96430.31;;;10.34;100.00
48041;BME280;33815;48.386;11.738;2022-10-22T05:58:43;96442.56;;;10.42;100.00
48041;BME280;33815;48.386;11.738;2022-10-22T06:01:17;96450.75;;;10.47;100.00
48041;BME280;33815;48.386;11.738;2022-10-22T06:03:44;96444.38;;;10.41;100.00
48041;BME280;33815;48.386;11.738;2022-10-22T06:06:19;96456.28;;;10.44;100.00
48041;BME280;33815;48.386;11.738;2022-10-22T06:08:47;96459.06;;;10.42;100.00
48041;BME280;33815;48.386;11.738;2022-10-22T06:11:13;96437.75;;;10.29;100.00
48041;BME280;33815;48.386;11.738;2022-10-22T06:13:38;96434.47;;;10.27;100.00
48041;BME280;33815;48.386;11.738;2022-10-22T06:16:03;96444.59;;;10.30;100.00
48041;BME280;33815;48.386;11.738;2022-10-22T06:18:29;96451.28;;;10.33;100.00
48041;BME280;33815;48.386;11.738;2022-10-22T06:20:54;96458.69;;;10.37;100.00
48041;BME280;33815;48.386;11.738;2022-10-22T06:23:19;96458.38;;;10.40;100.00
48041;BME280;33815;48.386;11.738;2022-10-22T06:25:55;96457.53;;;10.58;100.00
48041;BME280;33815;48.386;11.738;2022-10-22T06:28:20;96451.78;;;10.54;100.00
48041;BME280;33815;48.386;11.738;2022-10-22T06:30:45;96440.13;;;10.40;100.00
48041;BME280;33815;48.386;11.738;2022-10-22T06:33:11;96459.13;;;10.59;100.00
48041;BME280;33815;48.386;11.738;2022-10-22T06:35:36;96471.88;;;10.62;100.00
48041;BME280;33815;48.386;11.738;2022-10-22T06:38:01;96452.25;;;10.50;100.00
48041;BME280;33815;48.386;11.738;2022-10-22T06:40:26;96452.25;;;10.50;100.00
48041;BME280;33815;48.386;11.738;2022-10-22T06:42:52;96453.00;;;10.42;100.00
48041;BME280;33815;48.386;11.738;2022-10-22T06:45:17;96478.69;;;10.55;100.00
48041;BME280;33815;48.386;11.738;2022-10-22T06:47:42;96475.84;;;10.48;100.00
48041;BME280;33815;48.386;11.738;2022-10-22T06:50:08;96474.16;;;10.39;100.00
48041;BME280;33815;48.386;11.738;2022-10-22T06:52:33;96492.47;;;10.47;100.00
48041;BME280;33815;48.386;11.738;2022-10-22T06:54:58;96471.91;;;10.26;100.00
48041;BME280;33815;48.386;11.738;2022-10-22T06:57:24;96506.59;;;10.44;100.00
48041;BME280;33815;48.386;11.738;2022-10-22T06:59:49;96526.25;;;10.57;100.00
48041;BME280;33815;48.386;11.738;2022-10-22T07:02:14;96530.50;;;10.58;100.00
48041;BME280;33815;48.386;11.738;2022-10-22T07:04:40;96501.06;;;10.48;100.00
48041;BME280;33815;48.386;11.738;2022-10-22T07:07:05;96527.28;;;10.64;100.00
48041;BME280;33815;48.386;11.738;2022-10-22T07:09:30;96547.00;;;10.67;100.00
48041;BME280;33815;48.386;11.738;2022-10-22T07:11:55;96561.69;;;10.68;100.00
48041;BME280;33815;48.386;11.738;2022-10-22T07:14:21;96579.09;;;10.67;100.00
48041;BME280;33815;48.386;11.738;2022-10-22T07:16:46;96574.50;;;10.61;100.00
48041;BME280;33815;48.386;11.738;2022-10-22T07:19:12;96574.56;;;10.69;100.00
48041;BME280;33815;48.386;11.738;2022-10-22T07:21:38;96572.28;;;10.74;100.00
48041;BME280;33815;48.386;11.738;2022-10-22T07:24:03;96572.59;;;10.71;100.00
48041;BME280;33815;48.386;11.738;2022-10-22T07:26:29;96557.13;;;10.70;100.00
48041;BME280;33815;48.386;11.738;2022-10-22T07:28:56;96560.59;;;10.78;100.00
48041;BME280;33815;48.386;11.738;2022-10-22T07:31:22;96586.66;;;10.96;100.00
48041;BME280;33815;48.386;11.738;2022-10-22T07:33:47;96587.22;;;11.08;100.00
48041;BME280;33815;48.386;11.738;2022-10-22T07:36:14;96596.00;;;11.07;100.00
48041;BME280;33815;48.386;11.738;2022-10-22T07:38:53;96602.56;;;11.11;100.00
48041;BME280;33815;48.386;11.738;2022-10-22T07:41:19;96578.06;;;11.04;100.00
48041;BME280;33815;48.386;11.738;2022-10-22T07:43:44;96604.00;;;11.32;100.00
48041;BME280;33815;48.386;11.738;2022-10-22T07:46:10;96607.09;;;11.36;100.00
48041;BME280;33815;48.386;11.738;2022-10-22T07:48:35;96591.06;;;11.22;100.00
48041;BME280;33815;48.386;11.738;2022-10-22T07:51:00;96595.13;;;11.25;100.00
48041;BME280;33815;48.386;11.738;2022-10-22T07:53:26;96602.53;;;11.29;100.00
48041;BME280;33815;48.386;11.738;2022-10-22T07:55:52;96602.84;;;11.35;100.00
48041;BME280;33815;48.386;11.738;2022-10-22T07:58:18;96584.53;;;11.18;100.00
48041;BME280;33815;48.386;11.738;2022-10-22T08:00:44;96619.34;;;11.35;100.00
48041;BME280;33815;48.386;11.738;2022-10-22T08:03:10;96620.00;;;11.37;100.00
48041;BME280;33815;48.386;11.738;2022-10-22T08:05:36;96620.22;;;11.44;100.00
48041;BME280;33815;48.386;11.738;2022-10-22T08:08:03;96630.16;;;11.48;100.00
48041;BME280;33815;48.386;11.738;2022-10-22T08:10:29;96613.22;;;11.53;100.00
48041;BME280;33815;48.386;11.738;2022-10-22T08:12:54;96631.56;;;11.61;100.00
48041;BME280;33815;48.386;11.738;2022-10-22T08:15:20;96605.66;;;11.68;100.00
48041;BME280;33815;48.386;11.738;2022-10-22T08:17:47;96628.34;;;11.75;100.00
48041;BME280;33815;48.386;11.738;2022-10-22T08:20:12;96614.53;;;11.83;100.00
48041;BME280;33815;48.386;11.738;2022-10-22T08:22:37;96597.19;;;11.74;100.00
48041;BME280;33815;48.386;11.738;2022-10-22T08:25:03;96639.91;;;11.99;100.00
48041;BME280;33815;48.386;11.738;2022-10-22T08:27:28;96632.09;;;12.07;100.00
48041;BME280;33815;48.386;11.738;2022-10-22T08:29:54;96627.09;;;12.22;100.00
48041;BME280;33815;48.386;11.738;2022-10-22T08:32:19;96618.59;;;12.20;100.00
48041;BME280;33815;48.386;11.738;2022-10-22T08:34:44;96623.00;;;12.20;100.00
48041;BME280;33815;48.386;11.738;2022-10-22T08:37:09;96632.66;;;12.27;100.00
48041;BME280;33815;48.386;11.738;2022-10-22T08:39:38;96632.66;;;12.19;100.00
48041;BME280;33815;48.386;11.738;2022-10-22T08:45:10;96653.09;;;12.32;100.00
48041;BME280;33815;48.386;11.738;2022-10-22T08:50:11;96647.06;;;12.40;100.00
48041;BME280;33815;48.386;11.738;2022-10-22T08:52:39;96661.59;;;12.42;100.00
48041;BME280;33815;48.386;11.738;2022-10-22T08:55:12;96654.22;;;12.29;100.00
48041;BME280;33815;48.386;11.738;2022-10-22T08:58:05;96672.34;;;12.31;100.00
48041;BME280;33815;48.386;11.738;2022-10-22T09:00:46;96655.06;;;12.38;100.00
48041;BME280;33815;48.386;11.738;2022-10-22T09:03:24;96669.09;;;12.37;100.00
48041;BME280;33815;48.386;11.738;2022-10-22T09:06:12;96682.06;;;12.55;100.00
48041;BME280;33815;48.386;11.738;2022-10-22T09:08:39;96690.75;;;12.64;100.00
48041;BME280;33815;48.386;11.738;2022-10-22T09:13:39;96674.41;;;12.70;100.00
48041;BME280;33815;48.386;11.738;2022-10-22T09:18:41;96690.00;;;13.05;100.00
48041;BME280;33815;48.386;11.738;2022-10-22T09:21:44;96685.22;;;13.00;100.00
48041;BME280;33815;48.386;11.738;2022-10-22T09:24:14;96689.13;;;12.96;100.00
48041;BME280;33815;48.386;11.738;2022-10-22T09:26:41;96695.69;;;13.16;100.00
48041;BME280;33815;48.386;11.738;2022-10-22T09:29:12;96701.28;;;13.22;100.00
48041;BME280;33815;48.386;11.738;2022-10-22T09:31:41;96687.69;;;13.10;100.00
48041;BME280;33815;48.386;11.738;2022-10-22T09:34:06;96693.41;;;13.05;100.00
48041;BME280;33815;48.386;11.738;2022-10-22T09:36:32;96703.22;;;13.28;100.00
48041;BME280;33815;48.386;11.738;2022-10-22T09:38:59;96711.56;;;13.31;100.00
48041;BME280;33815;48.386;11.738;2022-10-22T09:41:27;96714.53;;;13.45;100.00
48041;BME280;33815;48.386;11.738;2022-10-22T09:43:54;96705.03;;;13.44;100.00
48041;BME280;33815;48.386;11.738;2022-10-22T09:46:21;96707.00;;;13.58;100.00
48041;BME280;33815;48.386;11.738;2022-10-22T09:49:05;96706.97;;;13.75;100.00
48041;BME280;33815;48.386;11.738;2022-10-22T09:57:14;96708.88;;;14.05;100.00
48041;BME280;33815;48.386;11.738;2022-10-22T09:59:47;96699.72;;;14.33;100.00
48041;BME280;33815;48.386;11.738;2022-10-22T10:02:16;96717.88;;;14.43;100.00
48041;BME280;33815;48.386;11.738;2022-10-22T10:04:52;96710.84;;;14.35;100.00
48041;BME280;33815;48.386;11.738;2022-10-22T10:07:23;96716.03;;;14.51;100.00
48041;BME280;33815;48.386;11.738;2022-10-22T10:09:50;96718.63;;;14.60;100.00
48041;BME280;33815;48.386;11.738;2022-10-22T10:12:20;96721.03;;;14.38;100.00
48041;BME280;33815;48.386;11.738;2022-10-22T10:17:43;96723.72;;;14.13;100.00
48041;BME280;33815;48.386;11.738;2022-10-22T10:23:30;96724.38;;;13.51;100.00
48041;BME280;33815;48.386;11.738;2022-10-22T10:28:41;96715.00;;;13.24;100.00
48041;BME280;33815;48.386;11.738;2022-10-22T10:34:23;96707.94;;;12.83;100.00
48041;BME280;33815;48.386;11.738;2022-10-22T10:42:26;96703.53;;;12.75;100.00
48041;BME280;33815;48.386;11.738;2022-10-22T10:47:50;96698.78;;;12.79;100.00
48041;BME280;33815;48.386;11.738;2022-10-22T10:50:26;96699.91;;;12.84;100.00
48041;BME280;33815;48.386;11.738;2022-10-22T10:53:02;96681.44;;;12.78;100.00
48041;BME280;33815;48.386;11.738;2022-10-22T10:55:41;96706.16;;;13.08;100.00
48041;BME280;33815;48.386;11.738;2022-10-22T10:58:16;96706.84;;;13.10;100.00
48041;BME280;33815;48.386;11.738;2022-10-22T11:00:52;96698.97;;;13.10;100.00
48041;BME280;33815;48.386;11.738;2022-10-22T11:03:33;96714.34;;;13.13;100.00
48041;BME280;33815;48.386;11.738;2022-10-22T11:06:07;96713.84;;;13.26;100.00
48041;BME280;33815;48.386;11.738;2022-10-22T11:13:38;96710.59;;;13.57;100.00
48041;BME280;33815;48.386;11.738;2022-10-22T11:16:19;96706.19;;;13.49;100.00
48041;BME280;33815;48.386;11.738;2022-10-22T11:21:27;96704.66;;;14.28;100.00
48041;BME280;33815;48.386;11.738;2022-10-22T11:26:51;96702.50;;;15.40;100.00
48041;BME280;33815;48.386;11.738;2022-10-22T11:29:23;96701.53;;;15.56;100.00
48041;BME280;33815;48.386;11.738;2022-10-22T11:31:50;96689.88;;;15.74;100.00
48041;BME280;33815;48.386;11.738;2022-10-22T11:34:29;96689.69;;;15.61;100.00
48041;BME280;33815;48.386;11.738;2022-10-22T11:36:57;96674.28;;;15.57;100.00
48041;BME280;33815;48.386;11.738;2022-10-22T11:39:53;96694.66;;;15.55;100.00
48041;BME280;33815;48.386;11.738;2022-10-22T11:42:38;96686.09;;;15.38;100.00
48041;BME280;33815;48.386;11.738;2022-10-22T11:48:06;96698.06;;;15.41;100.00
48041;BME280;33815;48.386;11.738;2022-10-22T12:01:16;96691.66;;;14.43;100.00
48041;BME280;33815;48.386;11.738;2022-10-22T12:11:22;96687.13;;;14.68;100.00
48041;BME280;33815;48.386;11.738;2022-10-22T12:16:24;96692.22;;;14.93;100.00
48041;BME280;33815;48.386;11.738;2022-10-22T12:18:55;96681.19;;;14.97;100.00
48041;BME280;33815;48.386;11.738;2022-10-22T12:21:21;96683.41;;;15.08;100.00
48041;BME280;33815;48.386;11.738;2022-10-22T12:23:48;96676.00;;;15.12;100.00
48041;BME280;33815;48.386;11.738;2022-10-22T12:26:25;96678.41;;;15.37;100.00
48041;BME280;33815;48.386;11.738;2022-10-22T12:28:56;96662.03;;;15.12;100.00
48041;BME280;33815;48.386;11.738;2022-10-22T12:31:21;96671.97;;;15.01;100.00
48041;BME280;33815;48.386;11.738;2022-10-22T12:33:46;96643.81;;;15.33;100.00
48041;BME280;33815;48.386;11.738;2022-10-22T12:36:17;96653.06;;;15.44;100.00
48041;BME280;33815;48.386;11.738;2022-10-22T12:38:45;96660.41;;;15.49;100.00
48041;BME280;33815;48.386;11.738;2022-10-22T12:41:14;96650.47;;;15.59;100.00
48041;BME280;33815;48.386;11.738;2022-10-22T12:43:39;96638.66;;;16.30;100.00
48041;BME280;33815;48.386;11.738;2022-10-22T12:46:12;96654.09;;;16.54;100.00
48041;BME280;33815;48.386;11.738;2022-10-22T12:48:43;96652.34;;;17.20;100.00
48041;BME280;33815;48.386;11.738;2022-10-22T12:51:15;96647.69;;;18.20;100.00
48041;BME280;33815;48.386;11.738;2022-10-22T12:53:45;96639.38;;;17.81;98.87
48041;BME280;33815;48.386;11.738;2022-10-22T12:56:13;96651.75;;;18.23;99.31
48041;BME280;33815;48.386;11.738;2022-10-22T12:58:59;96652.19;;;18.33;100.00
48041;BME280;33815;48.386;11.738;2022-10-22T13:01:28;96653.91;;;18.06;92.81
48041;BME280;33815;48.386;11.738;2022-10-22T13:09:44;96657.72;;;18.45;91.68
48041;BME280;33815;48.386;11.738;2022-10-22T13:12:10;96648.75;;;17.91;89.36
48041;BME280;33815;48.386;11.738;2022-10-22T13:14:44;96657.66;;;17.55;96.43
48041;BME280;33815;48.386;11.738;2022-10-22T13:19:42;96638.78;;;17.51;94.84
48041;BME280;33815;48.386;11.738;2022-10-22T13:23:16;96646.22;;;17.76;89.83
48041;BME280;33815;48.386;11.738;2022-10-22T13:27:55;96637.06;;;17.37;92.82
48041;BME280;33815;48.386;11.738;2022-10-22T13:30:24;96639.22;;;17.55;91.62
48041;BME280;33815;48.386;11.738;2022-10-22T13:33:01;96633.19;;;17.33;91.60
48041;BME280;33815;48.386;11.738;2022-10-22T13:35:33;96641.47;;;17.29;97.01
48041;BME280;33815;48.386;11.738;2022-10-22T13:37:59;96639.97;;;17.49;98.71
48041;BME280;33815;48.386;11.738;2022-10-22T13:40:24;96637.38;;;17.55;91.44
48041;BME280;33815;48.386;11.738;2022-10-22T13:42:50;96631.75;;;17.65;91.28
48041;BME280;33815;48.386;11.738;2022-10-22T13:45:15;96646.94;;;17.63;90.70
48041;BME280;33815;48.386;11.738;2022-10-22T13:47:44;96635.69;;;17.47;93.08
48041;BME280;33815;48.386;11.738;2022-10-22T13:50:14;96644.44;;;17.48;92.12
48041;BME280;33815;48.386;11.738;2022-10-22T13:52:49;96645.31;;;17.34;95.01
48041;BME280;33815;48.386;11.738;2022-10-22T13:55:34;96647.22;;;17.40;95.32
48041;BME280;33815;48.386;11.738;2022-10-22T13:58:05;96656.06;;;17.60;93.84
48041;BME280;33815;48.386;11.738;2022-10-22T14:00:30;96647.56;;;17.65;91.12
48041;BME280;33815;48.386;11.738;2022-10-22T14:02:57;96649.13;;;17.53;89.64
48041;BME280;33815;48.386;11.738;2022-10-22T14:05:23;96655.50;;;17.37;90.51
48041;BME280;33815;48.386;11.738;2022-10-22T14:07:48;96645.03;;;17.22;90.13
48041;BME280;33815;48.386;11.738;2022-10-22T14:10:19;96657.28;;;17.29;90.01
48041;BME280;33815;48.386;11.738;2022-10-22T14:12:45;96652.50;;;17.18;88.62
48041;BME280;33815;48.386;11.738;2022-10-22T14:15:12;96650.59;;;16.69;91.09
48041;BME280;33815;48.386;11.738;2022-10-22T14:17:39;96650.69;;;16.39;92.39
48041;BME280;33815;48.386;11.738;2022-10-22T14:20:13;96651.56;;;16.09;96.80
48041;BME280;33815;48.386;11.738;2022-10-22T14:22:39;96639.69;;;15.99;96.79